createdAt,value
2018-09-26T00:00:45.513Z,95.79
2018-09-26T00:01:45.512Z,96.36
2018-09-26T00:02:45.533Z,94.08
2018-09-26T00:03:45.501Z,89.72
2018-09-26T00:04:45.500Z,88.40
2018-09-26T00:05:45.488Z,90.58
2018-09-26T00:06:45.479Z,90.95
2018-09-26T00:07:45.513Z,90.77
2018-09-26T00:08:45.465Z,89.06
2018-09-26T00:09:45.471Z,89.91
2018-09-26T00:10:45.638Z,88.40
2018-09-26T00:11:45.485Z,88.40
2018-09-26T00:12:45.449Z,88.96
2018-09-26T00:13:45.477Z,88.59
2018-09-26T00:14:45.440Z,89.91
2018-09-26T00:15:45.434Z,90.67
2018-09-26T00:16:45.421Z,91.24
2018-09-26T00:17:45.449Z,91.76
2018-09-26T00:18:45.417Z,89.53
2018-09-26T00:19:45.409Z,89.34
2018-09-26T00:20:45.405Z,91.29
2018-09-26T00:21:45.528Z,90.01
2018-09-26T00:22:45.417Z,87.92
2018-09-26T00:23:45.389Z,87.92
2018-09-26T00:24:45.386Z,90.48
2018-09-26T00:25:45.377Z,89.82
2018-09-26T00:26:45.369Z,88.35
2018-09-26T00:27:45.388Z,87.88
2018-09-26T00:28:45.358Z,85.51
2018-09-26T00:29:45.353Z,83.62
2018-09-26T00:30:45.353Z,81.63
2018-09-26T00:31:45.342Z,78.88
2018-09-26T00:32:45.365Z,77.46
2018-09-26T00:33:45.329Z,75.38
2018-09-26T00:34:45.323Z,74.43
2018-09-26T00:35:45.324Z,74.71
2018-09-26T00:36:45.313Z,75.85
2018-09-26T00:37:45.334Z,77.37
2018-09-26T00:38:45.301Z,78.59
2018-09-26T00:39:45.297Z,79.93
2018-09-26T00:40:45.286Z,80.77
2018-09-26T00:41:45.277Z,80.40
2018-09-26T00:42:45.306Z,83.09
2018-09-26T00:43:45.270Z,83.90
2018-09-26T00:44:45.269Z,81.92
2018-09-26T00:45:45.253Z,82.10
2018-09-26T00:46:45.254Z,82.67
2018-09-26T00:47:45.283Z,80.96
2018-09-26T00:48:45.237Z,80.02
2018-09-26T00:49:45.229Z,79.64
2018-09-26T00:50:45.230Z,80.58
2018-09-26T00:51:45.226Z,84.28
2018-09-26T00:52:45.246Z,84.19
2018-09-26T00:53:45.205Z,84.09
2018-09-26T00:54:45.201Z,83.62
2018-09-26T00:55:45.207Z,81.82
2018-09-26T00:56:45.194Z,83.05
2018-09-26T00:57:45.218Z,80.96
2018-09-26T00:58:45.183Z,78.69
2018-09-26T00:59:45.178Z,76.70
2018-09-26T01:00:45.173Z,77.56
2018-09-26T01:01:45.301Z,81.15
2018-09-26T01:02:45.186Z,81.63
2018-09-26T01:03:45.154Z,82.39
2018-09-26T01:04:45.144Z,83.62
2018-09-26T01:05:45.143Z,83.14
2018-09-26T01:06:45.130Z,83.33
2018-09-26T01:07:45.158Z,82.67
2018-09-26T01:08:45.125Z,83.62
2018-09-26T01:09:45.116Z,83.43
2018-09-26T01:10:45.110Z,83.71
2018-09-26T01:11:45.133Z,84.19
2018-09-26T01:12:45.098Z,85.80
2018-09-26T01:13:45.093Z,92.19
2018-09-26T01:14:45.089Z,92.76
2018-09-26T01:15:45.076Z,90.39
2018-09-26T01:16:45.102Z,88.21
2018-09-26T01:17:45.086Z,90.06
2018-09-26T01:18:45.058Z,89.91
2018-09-26T01:19:45.055Z,94.18
2018-09-26T01:20:45.051Z,89.96
2018-09-26T01:21:45.052Z,85.80
2018-09-26T01:22:45.067Z,87.12
2018-09-26T01:23:45.030Z,88.45
2018-09-26T01:24:45.026Z,88.78
2018-09-26T01:25:45.022Z,89.15
2018-09-26T01:26:45.048Z,88.87
2018-09-26T01:27:45.026Z,88.59
2018-09-26T01:28:45.014Z,88.21
2018-09-26T01:29:44.998Z,88.49
2018-09-26T01:30:44.997Z,89.53
2018-09-26T01:31:44.983Z,89.44
2018-09-26T01:32:45.007Z,89.11
2018-09-26T01:33:44.966Z,88.26
2018-09-26T01:34:44.979Z,86.74
2018-09-26T01:35:44.969Z,86.27
2018-09-26T01:36:44.966Z,85.42
2018-09-26T01:37:44.998Z,83.24
2018-09-26T01:38:44.954Z,84.85
2018-09-26T01:39:44.949Z,85.70
2018-09-26T01:40:44.942Z,84.94
2018-09-26T01:41:44.936Z,82.76
2018-09-26T01:42:44.956Z,82.05
2018-09-26T01:43:44.923Z,83.66
2018-09-26T01:44:44.927Z,84.47
2018-09-26T01:45:44.911Z,81.44
2018-09-26T01:46:44.907Z,77.69
2018-09-26T01:47:44.929Z,81.48
2018-09-26T01:48:44.895Z,83.56
2018-09-26T01:49:44.895Z,82.14
2018-09-26T01:50:44.882Z,83.09
2018-09-26T01:51:44.883Z,83.81
2018-09-26T01:52:44.898Z,80.77
2018-09-26T01:53:44.864Z,80.40
2018-09-26T01:54:44.858Z,81.25
2018-09-26T01:55:44.853Z,77.08
2018-09-26T01:56:44.847Z,77.65
2018-09-26T01:57:44.863Z,78.03
2018-09-26T01:58:44.834Z,71.97
2018-09-26T01:59:44.826Z,67.61
2018-09-26T02:00:44.829Z,67.05
2018-09-26T02:01:44.819Z,72.16
2018-09-26T02:02:44.850Z,71.69
2018-09-26T02:03:44.807Z,72.53
2018-09-26T02:04:44.798Z,73.39
2018-09-26T02:05:44.795Z,73.30
2018-09-26T02:06:44.790Z,74.05
2018-09-26T02:07:44.807Z,75.28
2018-09-26T02:08:44.803Z,78.22
2018-09-26T02:09:44.772Z,77.84
2018-09-26T02:10:44.764Z,74.81
2018-09-26T02:11:44.759Z,75.76
2018-09-26T02:12:44.751Z,74.05
2018-09-26T02:13:44.771Z,73.11
2018-09-26T02:14:44.739Z,72.16
2018-09-26T02:15:44.737Z,71.88
2018-09-26T02:16:44.726Z,73.01
2018-09-26T02:17:44.726Z,71.97
2018-09-26T02:18:44.743Z,71.21
2018-09-26T02:19:44.711Z,71.78
2018-09-26T02:20:44.702Z,74.62
2018-09-26T02:21:44.699Z,73.68
2018-09-26T02:22:44.692Z,73.30
2018-09-26T02:23:44.725Z,73.20
2018-09-26T02:24:44.677Z,71.69
2018-09-26T02:25:44.675Z,71.88
2018-09-26T02:26:44.672Z,71.02
2018-09-26T02:27:44.663Z,71.88
2018-09-26T02:28:44.680Z,73.86
2018-09-26T02:29:44.651Z,72.92
2018-09-26T02:30:44.646Z,73.20
2018-09-26T02:31:44.642Z,72.73
2018-09-26T02:32:44.627Z,73.96
2018-09-26T02:33:44.651Z,74.90
2018-09-26T02:34:44.620Z,73.30
2018-09-26T02:35:44.617Z,73.39
2018-09-26T02:36:44.606Z,74.43
2018-09-26T02:37:44.600Z,81.15
2018-09-26T02:38:44.595Z,82.95
2018-09-26T02:39:44.637Z,83.71
2018-09-26T02:40:44.582Z,90.53
2018-09-26T02:41:45.115Z,96.55
2018-09-26T02:42:44.570Z,99.99
2018-09-26T02:43:44.592Z,99.99
2018-09-26T02:44:44.559Z,99.99
2018-09-26T02:45:44.553Z,99.99
2018-09-26T02:46:44.548Z,99.99
2018-09-26T02:47:44.539Z,99.99
2018-09-26T02:48:44.563Z,99.99
2018-09-26T02:49:44.527Z,99.99
2018-09-26T02:50:44.544Z,99.99
2018-09-26T02:51:44.516Z,99.99
2018-09-26T02:52:44.514Z,99.99
2018-09-26T02:53:44.532Z,99.99
2018-09-26T02:54:44.499Z,99.99
2018-09-26T02:55:44.556Z,99.99
2018-09-26T02:56:44.489Z,99.99
2018-09-26T02:57:44.479Z,99.99
2018-09-26T02:58:44.505Z,99.99
2018-09-26T02:59:44.468Z,99.99
2018-09-26T03:00:44.520Z,99.99
2018-09-26T03:01:44.460Z,99.99
2018-09-26T03:02:44.458Z,99.99
2018-09-26T03:03:44.479Z,99.99
2018-09-26T03:04:44.444Z,99.99
2018-09-26T03:05:44.438Z,99.99
2018-09-26T03:06:44.437Z,99.99
2018-09-26T03:07:44.431Z,99.99
2018-09-26T03:08:44.448Z,99.99
2018-09-26T03:09:44.416Z,99.99
2018-09-26T03:10:44.434Z,99.99
2018-09-26T03:11:44.417Z,99.99
2018-09-26T03:12:44.407Z,99.99
2018-09-26T03:13:44.428Z,99.99
2018-09-26T03:14:44.396Z,99.99
2018-09-26T03:15:44.387Z,99.99
2018-09-26T03:16:44.383Z,99.99
2018-09-26T03:17:44.489Z,99.99
2018-09-26T03:18:44.399Z,99.99
2018-09-26T03:19:44.374Z,99.99
2018-09-26T03:20:44.358Z,99.99
2018-09-26T03:21:44.359Z,99.99
2018-09-26T03:22:44.350Z,99.99
2018-09-26T03:23:44.388Z,99.99
2018-09-26T03:24:44.343Z,99.99
2018-09-26T03:25:44.343Z,99.99
2018-09-26T03:26:44.331Z,99.99
2018-09-26T03:27:44.328Z,99.99
2018-09-26T03:28:44.352Z,99.99
2018-09-26T03:29:44.323Z,99.99
2018-09-26T03:30:44.313Z,99.99
2018-09-26T03:31:44.306Z,99.99
2018-09-26T03:32:44.302Z,99.99
2018-09-26T03:33:44.395Z,99.99
2018-09-26T03:34:44.310Z,99.99
2018-09-26T03:35:44.282Z,99.99
2018-09-26T03:36:44.284Z,99.99
2018-09-26T03:37:44.270Z,99.99
2018-09-26T03:38:44.303Z,99.99
2018-09-26T03:39:44.273Z,99.99
2018-09-26T03:40:44.255Z,99.99
2018-09-26T03:41:44.255Z,99.99
2018-09-26T03:42:44.253Z,99.99
2018-09-26T03:43:44.272Z,99.99
2018-09-26T03:44:44.235Z,99.99
2018-09-26T03:45:44.235Z,99.99
2018-09-26T03:46:44.293Z,99.99
2018-09-26T03:47:44.222Z,99.99
2018-09-26T03:48:44.242Z,99.99
2018-09-26T03:49:44.214Z,99.99
2018-09-26T03:50:44.211Z,99.99
2018-09-26T03:51:44.209Z,99.99
2018-09-26T03:52:44.194Z,99.99
2018-09-26T03:53:44.221Z,99.99
2018-09-26T03:54:44.189Z,99.99
2018-09-26T03:55:44.188Z,99.99
2018-09-26T03:56:44.181Z,99.99
2018-09-26T03:57:44.172Z,99.99
2018-09-26T03:58:44.200Z,99.99
2018-09-26T03:59:44.166Z,99.99
2018-09-26T04:00:44.173Z,99.99
2018-09-26T04:01:44.154Z,99.99
2018-09-26T04:02:44.150Z,99.99
2018-09-26T04:03:44.174Z,99.99
2018-09-26T04:04:44.186Z,99.99
2018-09-26T04:05:44.139Z,99.99
2018-09-26T04:06:44.127Z,99.99
2018-09-26T04:07:44.122Z,99.99
2018-09-26T04:08:44.144Z,99.99
2018-09-26T04:09:44.117Z,99.99
2018-09-26T04:10:44.103Z,99.99
2018-09-26T04:11:44.106Z,99.99
2018-09-26T04:12:44.173Z,99.99
2018-09-26T04:13:44.118Z,99.99
2018-09-26T04:14:44.117Z,99.99
2018-09-26T04:15:44.149Z,99.99
2018-09-26T04:16:44.091Z,99.99
2018-09-26T04:17:44.070Z,99.99
2018-09-26T04:18:44.060Z,99.99
2018-09-26T04:19:44.088Z,99.99
2018-09-26T04:20:44.050Z,99.99
2018-09-26T04:21:44.052Z,99.99
2018-09-26T04:22:44.046Z,99.99
2018-09-26T04:23:44.039Z,99.99
2018-09-26T04:24:44.061Z,99.99
2018-09-26T04:25:44.020Z,99.99
2018-09-26T04:26:44.108Z,99.99
2018-09-26T04:27:44.098Z,99.99
2018-09-26T04:28:44.010Z,99.99
2018-09-26T04:29:44.045Z,99.99
2018-09-26T04:30:44.008Z,99.99
2018-09-26T04:31:43.991Z,99.99
2018-09-26T04:32:44.043Z,99.99
2018-09-26T04:33:44.103Z,99.99
2018-09-26T04:34:44.003Z,99.99
2018-09-26T04:35:43.962Z,97.73
2018-09-26T04:36:43.958Z,99.99
2018-09-26T04:37:43.953Z,99.62
2018-09-26T04:38:44.008Z,99.05
2018-09-26T04:39:43.970Z,99.99
2018-09-26T04:40:43.934Z,99.99
2018-09-26T04:41:43.930Z,99.99
2018-09-26T04:42:43.922Z,99.99
2018-09-26T04:43:43.918Z,99.99
2018-09-26T04:44:43.935Z,99.99
2018-09-26T04:45:43.939Z,99.99
2018-09-26T04:46:43.902Z,99.99
2018-09-26T04:47:43.899Z,99.99
2018-09-26T04:48:43.882Z,99.99
2018-09-26T04:49:43.886Z,97.82
2018-09-26T04:50:43.956Z,96.59
2018-09-26T04:51:43.873Z,95.93
2018-09-26T04:52:43.866Z,94.51
2018-09-26T04:53:43.860Z,96.02
2018-09-26T04:54:43.854Z,97.44
2018-09-26T04:55:43.882Z,97.44
2018-09-26T04:56:43.842Z,95.07
2018-09-26T04:57:43.841Z,93.65
2018-09-26T04:58:43.830Z,92.90
2018-09-26T04:59:43.823Z,91.29
2018-09-26T05:00:43.848Z,94.79
2018-09-26T05:01:43.810Z,95.93
2018-09-26T05:02:43.806Z,94.98
2018-09-26T05:03:43.801Z,90.72
2018-09-26T05:04:43.794Z,88.17
2018-09-26T05:05:43.820Z,88.35
2018-09-26T05:06:43.782Z,91.24
2018-09-26T05:07:43.781Z,89.77
2018-09-26T05:08:43.770Z,86.32
2018-09-26T05:09:43.759Z,85.66
2018-09-26T05:10:43.787Z,87.27
2018-09-26T05:11:43.754Z,88.40
2018-09-26T05:12:43.744Z,83.86
2018-09-26T05:13:43.735Z,81.49
2018-09-26T05:14:43.814Z,81.12
2018-09-26T05:15:43.771Z,78.27
2018-09-26T05:16:43.715Z,80.40
2018-09-26T05:17:43.711Z,82.67
2018-09-26T05:18:43.714Z,84.75
2018-09-26T05:19:43.699Z,85.99
2018-09-26T05:20:43.722Z,87.65
2018-09-26T05:21:43.757Z,89.16
2018-09-26T05:22:43.694Z,88.12
2018-09-26T05:23:43.678Z,88.21
2018-09-26T05:24:43.670Z,87.36
2018-09-26T05:25:43.697Z,87.65
2018-09-26T05:26:43.687Z,84.61
2018-09-26T05:27:43.654Z,86.22
2018-09-26T05:28:43.652Z,86.41
2018-09-26T05:29:43.643Z,87.08
2018-09-26T05:30:43.636Z,82.82
2018-09-26T05:31:43.654Z,85.47
2018-09-26T05:32:43.629Z,87.59
2018-09-26T05:33:43.616Z,85.51
2018-09-26T05:34:43.614Z,86.93
2018-09-26T05:35:43.630Z,89.49
2018-09-26T05:36:43.598Z,90.25
2018-09-26T05:37:43.590Z,90.53
2018-09-26T05:38:43.586Z,87.21
2018-09-26T05:39:43.578Z,86.36
2018-09-26T05:40:44.070Z,89.39
2018-09-26T05:41:43.753Z,91.29
2018-09-26T05:42:43.565Z,93.94
2018-09-26T05:43:43.557Z,95.26
2018-09-26T05:44:43.551Z,96.40
2018-09-26T05:45:43.573Z,98.49
2018-09-26T05:46:43.538Z,99.05
2018-09-26T05:47:43.533Z,98.86
2018-09-26T05:48:48.012Z,97.06
2018-09-26T05:49:43.896Z,96.88
2018-09-26T05:50:47.814Z,97.63
2018-09-26T05:51:45.506Z,99.15
2018-09-26T05:52:55.001Z,99.99
2018-09-26T05:53:46.473Z,99.99
2018-09-26T05:55:44.474Z,99.99
2018-09-26T05:56:46.499Z,99.99
2018-09-26T05:57:44.994Z,99.99
2018-09-26T05:58:46.116Z,97.78
2018-09-26T05:59:50.475Z,98.44
2018-09-26T06:00:48.035Z,99.99
2018-09-26T06:01:45.542Z,96.92
2018-09-26T06:02:43.707Z,99.99
2018-09-26T06:03:44.215Z,99.99
2018-09-26T06:04:49.476Z,99.99
2018-09-26T06:05:45.475Z,99.99
2018-09-26T06:06:44.649Z,99.99
2018-09-26T06:07:43.764Z,99.99
2018-09-26T06:08:44.092Z,99.99
2018-09-26T06:09:45.979Z,99.99
2018-09-26T06:10:46.523Z,99.99
2018-09-26T06:11:43.467Z,99.99
2018-09-26T06:12:43.619Z,99.99
2018-09-26T06:13:46.154Z,99.99
2018-09-26T06:14:49.602Z,99.99
2018-09-26T06:15:43.516Z,99.99
2018-09-26T06:16:44.172Z,99.99
2018-09-26T06:17:43.979Z,99.99
2018-09-26T06:18:46.236Z,99.99
2018-09-26T06:19:43.430Z,99.99
2018-09-26T06:20:44.154Z,99.99
2018-09-26T06:21:45.052Z,99.99
2018-09-26T06:22:46.485Z,99.99
2018-09-26T06:23:46.413Z,99.99
2018-09-26T06:24:55.433Z,99.99
2018-09-26T06:25:46.264Z,99.99
2018-09-26T06:26:45.475Z,99.99
2018-09-26T06:27:44.508Z,99.99
2018-09-26T06:28:44.153Z,99.99
2018-09-26T06:29:44.846Z,99.99
2018-09-26T06:30:43.316Z,99.99
2018-09-26T06:31:43.307Z,99.99
2018-09-26T06:32:43.300Z,99.99
2018-09-26T06:33:43.295Z,99.99
2018-09-26T06:34:43.320Z,99.99
2018-09-26T06:35:43.291Z,99.99
2018-09-26T06:36:43.317Z,99.99
2018-09-26T06:37:43.283Z,99.99
2018-09-26T06:38:43.279Z,99.99
2018-09-26T06:39:43.283Z,99.99
2018-09-26T06:40:43.301Z,99.99
2018-09-26T06:41:43.297Z,99.99
2018-09-26T06:42:43.276Z,99.99
2018-09-26T06:43:43.263Z,99.99
2018-09-26T06:44:43.265Z,99.99
2018-09-26T06:45:43.299Z,99.99
2018-09-26T06:46:43.263Z,99.99
2018-09-26T06:47:43.259Z,99.99
2018-09-26T06:48:43.255Z,99.99
2018-09-26T06:49:43.256Z,99.99
2018-09-26T06:50:43.279Z,99.99
2018-09-26T06:51:43.255Z,99.99
2018-09-26T06:52:43.250Z,99.99
2018-09-26T06:53:43.252Z,99.99
2018-09-26T06:54:43.250Z,99.99
2018-09-26T06:55:43.276Z,99.99
2018-09-26T06:56:43.240Z,99.99
2018-09-26T06:57:44.107Z,99.99
2018-09-26T06:58:43.428Z,99.99
2018-09-26T06:59:43.246Z,99.99
2018-09-26T07:00:43.265Z,99.99
2018-09-26T07:01:43.241Z,99.99
2018-09-26T07:02:43.238Z,99.99
2018-09-26T07:03:43.240Z,99.99
2018-09-26T07:04:43.241Z,99.99
2018-09-26T07:05:43.267Z,99.99
2018-09-26T07:06:43.271Z,99.99
2018-09-26T07:07:43.235Z,99.99
2018-09-26T07:08:43.236Z,99.99
2018-09-26T07:09:43.237Z,99.99
2018-09-26T07:10:43.239Z,99.99
2018-09-26T07:11:43.262Z,99.99
2018-09-26T07:12:43.238Z,99.99
2018-09-26T07:13:43.244Z,99.99
2018-09-26T07:14:43.237Z,99.99
2018-09-26T07:15:43.240Z,99.99
2018-09-26T07:16:43.260Z,99.99
2018-09-26T07:17:43.236Z,99.99
2018-09-26T07:18:43.241Z,99.99
2018-09-26T07:19:43.235Z,99.99
2018-09-26T07:20:43.234Z,99.99
2018-09-26T07:21:43.264Z,99.99
2018-09-26T07:22:43.249Z,99.99
2018-09-26T07:23:43.243Z,99.99
2018-09-26T07:24:43.240Z,99.99
2018-09-26T07:25:43.240Z,99.99
2018-09-26T07:26:43.269Z,99.99
2018-09-26T07:27:43.242Z,99.99
2018-09-26T07:28:43.240Z,99.99
2018-09-26T07:29:43.256Z,99.99
2018-09-26T07:30:43.244Z,99.99
2018-09-26T07:31:43.277Z,99.99
2018-09-26T07:32:43.244Z,99.99
2018-09-26T07:33:43.247Z,99.99
2018-09-26T07:34:43.245Z,99.99
2018-09-26T07:35:43.252Z,99.99
2018-09-26T07:36:43.277Z,99.99
2018-09-26T07:37:43.254Z,99.99
2018-09-26T07:38:43.260Z,99.99
2018-09-26T07:39:43.256Z,99.99
2018-09-26T07:40:43.258Z,99.99
2018-09-26T07:41:43.286Z,99.99
2018-09-26T07:42:43.259Z,99.99
2018-09-26T07:43:43.258Z,99.99
2018-09-26T07:44:43.269Z,99.99
2018-09-26T07:45:43.365Z,99.76
2018-09-26T07:46:43.296Z,97.28
2018-09-26T07:47:43.305Z,98.23
2018-09-26T07:48:43.269Z,98.94
2018-09-26T07:49:43.268Z,99.38
2018-09-26T07:50:43.272Z,99.48
2018-09-26T07:51:43.277Z,99.09
2018-09-26T07:52:43.310Z,99.85
2018-09-26T07:53:43.277Z,98.61
2018-09-26T07:54:43.285Z,97.75
2018-09-26T07:55:43.281Z,96.08
2018-09-26T07:56:43.293Z,94.02
2018-09-26T07:57:43.499Z,88.38
2018-09-26T07:58:43.295Z,85.13
2018-09-26T07:59:43.377Z,83.98
2018-09-26T08:00:43.330Z,86.08
2018-09-26T08:01:43.330Z,83.89
2018-09-26T08:02:43.312Z,80.87
2018-09-26T08:03:43.309Z,82.01
2018-09-26T08:04:43.312Z,80.87
2018-09-26T08:05:43.317Z,78.43
2018-09-26T08:06:43.352Z,76.86
2018-09-26T08:07:43.353Z,80.44
2018-09-26T08:08:43.333Z,79.00
2018-09-26T08:09:43.330Z,78.86
2018-09-26T08:10:43.333Z,77.61
2018-09-26T08:11:43.376Z,74.26
2018-09-26T08:12:43.369Z,74.66
2018-09-26T08:13:43.352Z,76.60
2018-09-26T08:14:43.349Z,77.23
2018-09-26T08:15:43.368Z,80.61
2018-09-26T08:16:43.361Z,80.84
2018-09-26T08:17:43.391Z,79.02
2018-09-26T08:18:43.479Z,77.82
2018-09-26T08:19:43.374Z,78.01
2018-09-26T08:20:43.377Z,75.34
2018-09-26T08:21:43.445Z,74.82
2018-09-26T08:22:43.381Z,77.25
2018-09-26T08:23:43.390Z,77.09
2018-09-26T08:24:43.391Z,74.66
2018-09-26T08:25:43.399Z,74.11
2018-09-26T08:26:43.434Z,77.36
2018-09-26T08:27:43.403Z,76.73
2018-09-26T08:28:43.412Z,77.34
2018-09-26T08:29:43.438Z,74.61
2018-09-26T08:30:43.424Z,73.36
2018-09-26T08:31:43.456Z,74.55
2018-09-26T08:32:43.456Z,71.45
2018-09-26T08:33:43.437Z,72.18
2018-09-26T08:34:43.447Z,74.22
2018-09-26T08:35:43.447Z,73.79
2018-09-26T08:36:43.454Z,74.58
2018-09-26T08:37:43.485Z,73.86
2018-09-26T08:38:43.461Z,70.35
2018-09-26T08:39:43.469Z,68.72
2018-09-26T08:40:43.475Z,68.43
2018-09-26T08:41:43.482Z,66.58
2018-09-26T08:42:43.513Z,66.86
2018-09-26T08:43:43.499Z,68.68
2018-09-26T08:44:43.497Z,70.62
2018-09-26T08:45:43.499Z,68.52
2018-09-26T08:46:43.509Z,67.69
2018-09-26T08:47:43.545Z,67.21
2018-09-26T08:48:43.521Z,67.41
2018-09-26T08:49:43.549Z,65.88
2018-09-26T08:50:43.538Z,66.25
2018-09-26T08:51:43.543Z,68.11
2018-09-26T08:52:43.549Z,65.52
2018-09-26T08:53:43.629Z,65.52
2018-09-26T08:54:43.566Z,64.43
2018-09-26T08:55:43.570Z,65.33
2018-09-26T08:56:43.578Z,63.39
2018-09-26T08:57:43.702Z,63.42
2018-09-26T08:58:43.593Z,64.79
2018-09-26T08:59:43.676Z,64.63
2018-09-26T09:00:43.605Z,64.79
2018-09-26T09:01:43.613Z,65.30
2018-09-26T09:02:43.658Z,64.53
2018-09-26T09:03:43.666Z,63.93
2018-09-26T09:04:43.637Z,63.70
2018-09-26T09:05:43.649Z,64.28
2018-09-26T09:06:43.655Z,64.66
2018-09-26T09:07:43.696Z,65.11
2018-09-26T09:08:43.694Z,65.01
2018-09-26T09:09:43.682Z,65.94
2018-09-26T09:10:43.690Z,64.50
2018-09-26T09:11:43.744Z,63.73
2018-09-26T09:12:43.725Z,64.25
2018-09-26T09:13:43.744Z,63.89
2018-09-26T09:14:43.856Z,64.02
2018-09-26T09:15:43.722Z,63.35
2018-09-26T09:16:43.729Z,62.20
2018-09-26T09:17:43.765Z,59.97
2018-09-26T09:18:43.775Z,59.69
2018-09-26T09:19:43.753Z,61.76
2018-09-26T09:20:43.759Z,63.89
2018-09-26T09:21:43.770Z,64.40
2018-09-26T09:22:43.784Z,63.60
2018-09-26T09:23:43.850Z,62.87
2018-09-26T09:24:43.797Z,62.01
2018-09-26T09:25:43.820Z,62.10
2018-09-26T09:26:43.810Z,60.57
2018-09-26T09:27:43.908Z,60.73
2018-09-26T09:28:43.850Z,62.20
2018-09-26T09:29:43.837Z,61.50
2018-09-26T09:30:43.840Z,62.10
2018-09-26T09:31:43.850Z,59.58
2018-09-26T09:32:43.854Z,59.45
2018-09-26T09:33:43.890Z,61.31
2018-09-26T09:34:43.866Z,60.64
2018-09-26T09:35:43.878Z,61.18
2018-09-26T09:36:44.534Z,63.42
2018-09-26T09:37:43.899Z,62.01
2018-09-26T09:38:43.931Z,60.67
2018-09-26T09:39:43.918Z,60.67
2018-09-26T09:40:43.920Z,58.72
2018-09-26T09:41:43.933Z,59.65
2018-09-26T09:42:43.940Z,59.91
2018-09-26T09:43:43.975Z,61.47
2018-09-26T09:44:43.955Z,61.88
2018-09-26T09:45:43.962Z,61.31
2018-09-26T09:46:43.975Z,59.48
2018-09-26T09:47:43.983Z,59.27
2018-09-26T09:48:44.023Z,60.70
2018-09-26T09:49:43.999Z,60.25
2018-09-26T09:50:45.257Z,59.13
2018-09-26T09:51:44.079Z,59.33
2018-09-26T09:52:44.028Z,59.61
2018-09-26T09:53:44.065Z,59.42
2018-09-26T09:54:44.046Z,58.97
2018-09-26T09:55:44.053Z,59.86
2018-09-26T09:56:44.072Z,58.84
2018-09-26T09:57:46.023Z,58.84
2018-09-26T09:58:44.118Z,58.58
2018-09-26T09:59:44.101Z,56.66
2018-09-26T10:00:44.108Z,56.98
2018-09-26T10:01:44.113Z,55.66
2018-09-26T10:02:44.145Z,54.60
2018-09-26T10:03:44.178Z,53.52
2018-09-26T10:04:44.993Z,53.20
2018-09-26T10:05:44.163Z,54.35
2018-09-26T10:06:44.177Z,54.64
2018-09-26T10:07:44.186Z,55.41
2018-09-26T10:08:44.231Z,55.02
2018-09-26T10:09:44.203Z,56.08
2018-09-26T10:10:44.219Z,55.91
2018-09-26T10:11:44.230Z,54.86
2018-09-26T10:12:44.267Z,54.67
2018-09-26T10:13:44.251Z,54.74
2018-09-26T10:14:44.261Z,54.52
2018-09-26T10:15:44.273Z,55.29
2018-09-26T10:16:44.286Z,56.05
2018-09-26T10:17:44.322Z,55.22
2018-09-26T10:18:44.307Z,54.55
2018-09-26T10:19:44.359Z,54.16
2018-09-26T10:20:44.330Z,54.13
2018-09-26T10:21:44.339Z,54.74
2018-09-26T10:22:44.375Z,55.22
2018-09-26T10:23:44.358Z,55.32
2018-09-26T10:24:44.397Z,55.22
2018-09-26T10:25:44.382Z,55.63
2018-09-26T10:26:44.393Z,55.69
2018-09-26T10:27:44.433Z,56.49
2018-09-26T10:28:44.415Z,55.24
2018-09-26T10:29:44.424Z,54.60
2018-09-26T10:30:44.431Z,53.54
2018-09-26T10:31:44.446Z,54.41
2018-09-26T10:32:44.486Z,53.25
2018-09-26T10:33:44.471Z,52.29
2018-09-26T10:34:44.508Z,53.42
2018-09-26T10:35:44.495Z,54.22
2018-09-26T10:36:44.501Z,53.42
2018-09-26T10:37:44.542Z,54.28
2018-09-26T10:38:44.558Z,53.45
2018-09-26T10:39:44.543Z,52.94
2018-09-26T10:40:44.591Z,53.23
2018-09-26T10:41:44.562Z,53.16
2018-09-26T10:42:44.607Z,53.45
2018-09-26T10:43:44.614Z,52.65
2018-09-26T10:44:44.623Z,51.57
2018-09-26T10:45:44.605Z,53.58
2018-09-26T10:46:44.674Z,53.13
2018-09-26T10:47:44.662Z,52.29
2018-09-26T10:48:44.668Z,52.58
2018-09-26T10:49:44.649Z,51.62
2018-09-26T10:50:44.668Z,52.42
2018-09-26T10:51:44.680Z,51.57
2018-09-26T10:52:44.727Z,50.71
2018-09-26T10:53:44.732Z,50.61
2018-09-26T10:54:44.713Z,51.38
2018-09-26T10:55:44.724Z,50.40
2018-09-26T10:56:44.781Z,51.26
2018-09-26T10:57:44.783Z,51.38
2018-09-26T10:58:44.790Z,50.68
2018-09-26T10:59:44.776Z,50.45
2018-09-26T11:00:44.788Z,50.54
2018-09-26T11:01:44.807Z,50.51
2018-09-26T11:02:44.849Z,51.48
2018-09-26T11:03:44.857Z,51.19
2018-09-26T11:04:44.845Z,52.06
2018-09-26T11:05:44.859Z,51.29
2018-09-26T11:06:44.868Z,50.51
2018-09-26T11:07:44.874Z,50.30
2018-09-26T11:08:44.965Z,51.55
2018-09-26T11:09:44.914Z,50.82
2018-09-26T11:10:44.916Z,51.86
2018-09-26T11:11:44.927Z,52.62
2018-09-26T11:12:45.027Z,52.02
2018-09-26T11:13:44.982Z,52.62
2018-09-26T11:14:44.960Z,53.11
2018-09-26T11:15:44.969Z,52.05
2018-09-26T11:16:44.984Z,53.87
2018-09-26T11:17:44.990Z,52.40
2018-09-26T11:18:45.040Z,52.93
2018-09-26T11:19:45.010Z,54.39
2018-09-26T11:20:45.022Z,56.44
2018-09-26T11:21:45.030Z,54.93
2018-09-26T11:22:45.046Z,54.19
2018-09-26T11:23:45.078Z,52.17
2018-09-26T11:24:45.058Z,51.91
2018-09-26T11:25:45.075Z,51.53
2018-09-26T11:26:45.143Z,52.20
2018-09-26T11:27:45.082Z,51.72
2018-09-26T11:28:45.123Z,51.62
2018-09-26T11:29:45.108Z,51.14
2018-09-26T11:30:45.113Z,50.13
2018-09-26T11:31:45.123Z,52.26
2018-09-26T11:32:45.132Z,52.17
2018-09-26T11:33:45.273Z,53.28
2018-09-26T11:34:45.703Z,52.03
2018-09-26T11:35:45.162Z,51.29
2018-09-26T11:36:45.192Z,50.13
2018-09-26T11:37:45.176Z,51.38
2018-09-26T11:38:45.188Z,52.42
2018-09-26T11:39:45.224Z,54.43
2018-09-26T11:40:45.205Z,55.01
2018-09-26T11:41:45.213Z,53.19
2018-09-26T11:42:45.220Z,52.68
2018-09-26T11:43:45.267Z,54.41
2018-09-26T11:44:45.290Z,54.09
2018-09-26T11:45:45.248Z,53.25
2018-09-26T11:46:45.257Z,54.12
2018-09-26T11:47:45.262Z,53.28
2018-09-26T11:48:45.296Z,53.38
2018-09-26T11:49:45.282Z,55.01
2018-09-26T11:50:45.283Z,54.31
2018-09-26T11:51:45.289Z,53.92
2018-09-26T11:52:45.301Z,52.75
2018-09-26T11:53:45.333Z,52.36
2018-09-26T11:54:45.309Z,53.78
2018-09-26T11:55:45.323Z,56.56
2018-09-26T11:56:45.333Z,56.37
2018-09-26T11:57:45.329Z,55.60
2018-09-26T11:58:45.370Z,55.02
2018-09-26T11:59:45.348Z,54.35
2018-09-26T12:00:56.234Z,55.96
2018-09-26T12:01:45.355Z,56.34
2018-09-26T12:02:45.427Z,58.26
2018-09-26T12:03:45.398Z,57.59
2018-09-26T12:04:45.376Z,57.88
2018-09-26T12:05:45.384Z,57.78
2018-09-26T12:06:45.385Z,58.77
2018-09-26T12:07:45.376Z,58.67
2018-09-26T12:08:45.424Z,55.89
2018-09-26T12:09:45.397Z,56.27
2018-09-26T12:10:45.408Z,55.77
2018-09-26T12:11:45.417Z,58.48
2018-09-26T12:12:45.416Z,57.93
2018-09-26T12:13:45.512Z,55.82
2018-09-26T12:14:45.427Z,56.91
2018-09-26T12:15:45.431Z,56.23
2018-09-26T12:16:45.440Z,55.98
2018-09-26T12:17:45.443Z,54.05
2018-09-26T12:18:45.480Z,53.47
2018-09-26T12:19:45.455Z,54.05
2018-09-26T12:20:45.460Z,53.69
2018-09-26T12:21:45.724Z,53.62
2018-09-26T12:22:45.487Z,51.98
2018-09-26T12:23:45.509Z,53.14
2018-09-26T12:24:45.487Z,53.31
2018-09-26T12:25:45.492Z,53.31
2018-09-26T12:26:45.500Z,53.98
2018-09-26T12:27:45.566Z,55.71
2018-09-26T12:28:45.544Z,52.34
2018-09-26T12:29:45.517Z,52.39
2018-09-26T12:30:45.528Z,53.45
2018-09-26T12:31:45.540Z,53.90
2018-09-26T12:32:46.186Z,52.72
2018-09-26T12:33:46.310Z,52.53
2018-09-26T12:34:45.576Z,53.01
2018-09-26T12:35:46.241Z,52.50
2018-09-26T12:36:45.578Z,54.16
2018-09-26T12:37:46.136Z,52.34
2018-09-26T12:38:45.790Z,53.11
2018-09-26T12:39:45.593Z,53.49
2018-09-26T12:40:45.589Z,55.12
2018-09-26T12:41:46.611Z,53.66
2018-09-26T12:43:54.476Z,54.13
2018-09-26T12:44:46.733Z,54.61
2018-09-26T12:45:45.627Z,55.10
2018-09-26T12:46:45.619Z,53.63
2018-09-26T12:47:45.652Z,52.86
2018-09-26T12:48:45.630Z,52.86
2018-09-26T12:49:45.685Z,52.89
2018-09-26T12:50:50.117Z,52.60
2018-09-26T12:51:45.643Z,53.15
2018-09-26T12:52:45.675Z,53.72
2018-09-26T12:53:45.719Z,54.01
2018-09-26T12:54:45.655Z,54.11